createdAt,value
2018-05-02T00:02:21.715Z,7.47
2018-05-02T00:04:49.188Z,8.43
2018-05-02T00:07:16.627Z,8.00
2018-05-02T00:09:44.090Z,7.20
2018-05-02T00:12:11.515Z,6.80
2018-05-02T00:14:39.003Z,8.03
2018-05-02T00:17:06.444Z,8.07
2018-05-02T00:19:33.885Z,7.63
2018-05-02T00:22:01.371Z,7.43
2018-05-02T00:24:28.802Z,8.27
2018-05-02T00:26:56.279Z,8.30
2018-05-02T00:29:23.758Z,8.30
2018-05-02T00:31:51.195Z,7.60
2018-05-02T00:34:18.638Z,8.33
2018-05-02T00:36:46.078Z,8.33
2018-05-02T00:39:14.281Z,8.47
2018-05-02T00:41:41.710Z,8.13
2018-05-02T00:44:09.215Z,8.67
2018-05-02T00:46:36.652Z,9.47
2018-05-02T00:49:14.197Z,9.40
2018-05-02T00:51:42.387Z,8.40
2018-05-02T00:54:10.596Z,8.80
2018-05-02T00:56:38.054Z,9.33
2018-05-02T00:59:05.510Z,9.73
2018-05-02T01:01:32.948Z,8.93
2018-05-02T01:04:00.383Z,8.87
2018-05-02T01:06:28.584Z,9.90
2018-05-02T01:08:56.890Z,11.00
2018-05-02T01:11:24.442Z,11.83
2018-05-02T01:13:51.889Z,11.63
2018-05-02T01:16:19.327Z,11.13
2018-05-02T01:18:46.771Z,10.83
2018-05-02T01:21:14.979Z,10.83
2018-05-02T01:23:42.439Z,11.33
2018-05-02T01:26:09.900Z,9.93
2018-05-02T01:28:37.387Z,10.63
2018-05-02T01:31:04.846Z,10.57
2018-05-02T01:33:32.297Z,10.23
2018-05-02T01:35:59.728Z,10.13
2018-05-02T01:38:27.215Z,10.43
2018-05-02T01:40:54.659Z,11.70
2018-05-02T01:43:22.128Z,12.43
2018-05-02T01:45:49.563Z,12.03
2018-05-02T01:48:17.007Z,12.17
2018-05-02T01:50:44.454Z,12.00
2018-05-02T01:53:12.798Z,12.40
2018-05-02T01:55:40.931Z,13.73
2018-05-02T01:58:08.373Z,12.60
2018-05-02T02:00:35.810Z,12.97
2018-05-02T02:03:04.049Z,12.67
2018-05-02T02:05:31.475Z,14.03
2018-05-02T02:07:58.910Z,13.57
2018-05-02T02:10:27.117Z,14.00
2018-05-02T02:12:54.598Z,14.23
2018-05-02T02:15:22.044Z,13.57
2018-05-02T02:17:49.575Z,15.03
2018-05-02T02:20:16.926Z,14.63
2018-05-02T02:22:44.421Z,15.27
2018-05-02T02:25:11.847Z,13.93
2018-05-02T02:27:39.290Z,14.83
2018-05-02T02:30:07.505Z,14.13
2018-05-02T02:32:34.949Z,15.93
2018-05-02T02:35:02.378Z,15.90
2018-05-02T02:37:30.603Z,15.40
2018-05-02T02:39:58.164Z,15.13
2018-05-02T02:42:25.587Z,15.73
2018-05-02T02:44:53.007Z,15.83
2018-05-02T02:47:20.524Z,14.80
2018-05-02T02:49:47.961Z,14.83
2018-05-02T02:52:15.443Z,14.83
2018-05-02T02:54:42.903Z,15.80
2018-05-02T02:57:10.330Z,14.70
2018-05-02T02:59:37.763Z,15.33
2018-05-02T03:02:05.972Z,15.20
2018-05-02T03:04:33.445Z,14.70
2018-05-02T03:07:00.885Z,15.47
2018-05-02T03:09:28.318Z,14.80
2018-05-02T03:11:55.751Z,14.63
2018-05-02T03:14:23.987Z,14.53
2018-05-02T03:16:51.419Z,15.43
2018-05-02T03:19:18.908Z,13.67
2018-05-02T03:21:46.330Z,13.80
2018-05-02T03:24:13.779Z,15.47
2018-05-02T03:26:42.032Z,14.20
2018-05-02T03:29:09.547Z,15.27
2018-05-02T03:31:37.764Z,14.47
2018-05-02T03:34:05.201Z,14.83
2018-05-02T03:36:32.652Z,15.23
2018-05-02T03:39:00.101Z,15.43
2018-05-02T03:41:27.563Z,14.93
2018-05-02T03:43:54.987Z,15.70
2018-05-02T03:46:22.434Z,16.83
2018-05-02T03:48:50.656Z,16.83
2018-05-02T03:51:18.095Z,16.47
2018-05-02T03:53:46.958Z,18.00
2018-05-02T03:56:14.519Z,18.13
2018-05-02T03:58:41.978Z,18.30
2018-05-02T04:01:22.493Z,20.23
2018-05-02T04:04:02.083Z,18.73
2018-05-02T04:06:41.610Z,18.30
2018-05-02T04:09:09.066Z,18.70
2018-05-02T04:11:37.239Z,18.73
2018-05-02T04:14:04.689Z,18.63
2018-05-02T04:16:32.188Z,19.37
2018-05-02T04:18:59.650Z,21.07
2018-05-02T04:21:27.170Z,20.60
2018-05-02T04:23:54.611Z,20.93
2018-05-02T04:26:22.105Z,19.13
2018-05-02T04:28:49.581Z,19.73
2018-05-02T04:31:17.105Z,20.70
2018-05-02T04:33:44.605Z,20.40
2018-05-02T04:36:12.139Z,19.90
2018-05-02T04:38:39.555Z,19.90
2018-05-02T04:41:07.162Z,19.43
2018-05-02T04:43:34.571Z,17.90
2018-05-02T04:46:02.116Z,17.93
2018-05-02T04:48:29.552Z,18.13
2018-05-02T04:50:57.037Z,16.83
2018-05-02T04:53:24.471Z,17.13
2018-05-02T04:55:51.891Z,16.03
2018-05-02T04:58:20.115Z,15.23
2018-05-02T05:00:47.567Z,15.43
2018-05-02T05:03:15.050Z,14.87
2018-05-02T05:05:42.520Z,14.63
2018-05-02T05:08:09.939Z,14.77
2018-05-02T05:10:37.376Z,14.27
2018-05-02T05:13:04.842Z,14.53
2018-05-02T05:15:32.297Z,14.37
2018-05-02T05:18:00.478Z,13.60
2018-05-02T05:20:27.916Z,11.60
2018-05-02T05:22:55.357Z,11.17
2018-05-02T05:25:23.613Z,12.10
2018-05-02T05:27:51.194Z,10.63
2018-05-02T05:30:18.590Z,11.20
2018-05-02T05:32:46.027Z,11.20
2018-05-02T05:35:13.564Z,10.80
2018-05-02T05:37:40.934Z,11.20
2018-05-02T05:40:08.367Z,10.87
2018-05-02T05:42:35.889Z,10.73
2018-05-02T05:45:03.325Z,10.53
2018-05-02T05:47:30.775Z,9.97
2018-05-02T05:49:58.251Z,10.27
2018-05-02T05:52:25.688Z,10.00
2018-05-02T05:54:53.127Z,9.43
2018-05-02T05:57:21.451Z,9.90
2018-05-02T05:59:48.888Z,8.90
2018-05-02T06:02:16.367Z,9.17
2018-05-02T06:04:43.817Z,7.87
2018-05-02T06:07:11.251Z,8.80
2018-05-02T06:09:38.678Z,8.00
2018-05-02T06:12:06.114Z,9.03
2018-05-02T06:14:33.694Z,8.57
2018-05-02T06:17:01.100Z,8.23
2018-05-02T06:19:28.589Z,7.30
2018-05-02T06:21:55.998Z,8.23
2018-05-02T06:24:23.469Z,8.30
2018-05-02T06:26:50.943Z,8.10
2018-05-02T06:29:18.966Z,7.83
2018-05-02T06:31:46.537Z,7.90
2018-05-02T06:34:14.749Z,7.90
2018-05-02T06:36:42.219Z,7.80
2018-05-02T06:39:09.630Z,7.67
2018-05-02T06:41:37.132Z,6.80
2018-05-02T06:44:04.553Z,6.73
2018-05-02T06:46:32.947Z,7.47
2018-05-02T06:49:00.366Z,7.30
2018-05-02T06:51:28.575Z,6.80
2018-05-02T06:53:56.011Z,6.80
2018-05-02T06:56:23.539Z,7.87
2018-05-02T06:58:51.055Z,6.90
2018-05-02T07:01:18.504Z,6.70
2018-05-02T07:03:45.980Z,6.30
2018-05-02T07:06:13.427Z,6.90
2018-05-02T07:08:40.903Z,6.30
2018-05-02T07:11:08.355Z,5.70
2018-05-02T07:13:35.862Z,6.03
2018-05-02T07:16:03.218Z,6.37
2018-05-02T07:18:31.434Z,6.10
2018-05-02T07:20:58.899Z,6.23
2018-05-02T07:23:26.352Z,6.63
2018-05-02T07:25:53.795Z,6.73
2018-05-02T07:28:21.231Z,5.93
2018-05-02T07:30:48.719Z,6.10
2018-05-02T07:33:16.166Z,5.87
2018-05-02T07:35:43.675Z,6.07
2018-05-02T07:38:11.873Z,5.40
2018-05-02T07:40:40.337Z,5.10
2018-05-02T07:43:07.809Z,5.47
2018-05-02T07:45:35.999Z,5.27
2018-05-02T07:48:03.530Z,4.77
2018-05-02T07:50:31.054Z,5.10
2018-05-02T07:52:58.491Z,4.80
2018-05-02T07:55:26.008Z,4.73
2018-05-02T07:57:53.370Z,5.07
2018-05-02T08:00:21.587Z,5.10
2018-05-02T08:02:49.040Z,4.87
2018-05-02T08:05:16.470Z,4.33
2018-05-02T08:07:43.904Z,5.00
2018-05-02T08:10:12.134Z,4.97
2018-05-02T08:12:39.564Z,4.40
2018-05-02T08:15:07.009Z,4.83
2018-05-02T08:17:34.453Z,4.40
2018-05-02T08:20:02.722Z,4.70
2018-05-02T08:22:30.180Z,4.70
2018-05-02T08:24:57.786Z,4.63
2018-05-02T08:27:25.247Z,4.50
2018-05-02T08:29:52.684Z,4.50
2018-05-02T08:32:20.214Z,4.10
2018-05-02T08:34:47.627Z,4.60
2018-05-02T08:37:15.107Z,3.87
2018-05-02T08:39:42.585Z,4.20
2018-05-02T08:42:10.956Z,3.40
2018-05-02T08:44:38.390Z,4.37
2018-05-02T08:47:05.842Z,4.03
2018-05-02T08:49:33.371Z,3.47
2018-05-02T08:52:00.796Z,3.30
2018-05-02T08:54:29.023Z,3.57
2018-05-02T08:56:56.454Z,3.50
2018-05-02T08:59:23.878Z,3.40
2018-05-02T09:01:51.448Z,3.27
2018-05-02T09:04:18.849Z,2.60
2018-05-02T09:06:46.287Z,2.47
2018-05-02T09:09:13.759Z,3.00
2018-05-02T09:11:41.219Z,2.23
2018-05-02T09:14:08.659Z,2.80
2018-05-02T09:16:36.154Z,2.63
2018-05-02T09:19:03.623Z,2.17
2018-05-02T09:21:31.056Z,2.40
2018-05-02T09:23:58.507Z,2.30
2018-05-02T09:26:25.960Z,2.40
2018-05-02T09:28:53.385Z,2.20
2018-05-02T09:31:21.594Z,1.43
2018-05-02T09:33:49.041Z,1.50
2018-05-02T09:36:16.467Z,1.50
2018-05-02T09:38:44.680Z,1.03
2018-05-02T09:41:12.137Z,1.20
2018-05-02T09:43:39.605Z,1.40
2018-05-02T09:46:07.055Z,1.37
2018-05-02T09:48:34.516Z,1.63
2018-05-02T09:51:01.979Z,1.40
2018-05-02T09:53:29.538Z,1.20
2018-05-02T09:55:56.987Z,1.20
2018-05-02T09:58:24.451Z,1.47
2018-05-02T10:00:51.914Z,1.37
2018-05-02T10:03:19.367Z,1.67
2018-05-02T10:05:46.812Z,1.30
2018-05-02T10:08:14.266Z,1.83
2018-05-02T10:10:41.691Z,1.83
2018-05-02T10:13:09.903Z,1.87
2018-05-02T10:15:37.359Z,1.57
2018-05-02T10:18:04.800Z,1.67
2018-05-02T10:20:32.244Z,1.67
2018-05-02T10:23:00.459Z,1.40
2018-05-02T10:25:27.897Z,1.40
2018-05-02T10:27:55.334Z,1.60
2018-05-02T10:30:22.851Z,1.97
2018-05-02T10:32:50.384Z,1.90
2018-05-02T10:35:17.853Z,1.60
2018-05-02T10:37:45.303Z,1.50
2018-05-02T10:40:12.782Z,1.70
2018-05-02T10:42:40.232Z,1.57
2018-05-02T10:45:07.688Z,1.87
2018-05-02T10:47:35.136Z,1.83
2018-05-02T10:50:02.600Z,1.60
2018-05-02T10:52:30.163Z,1.97
2018-05-02T10:54:57.616Z,1.63
2018-05-02T10:57:25.053Z,1.47
2018-05-02T10:59:52.505Z,2.20
2018-05-02T11:02:19.938Z,2.17
2018-05-02T11:04:48.141Z,1.83
2018-05-02T11:07:15.568Z,2.10
2018-05-02T11:09:43.791Z,1.97
2018-05-02T11:12:11.304Z,1.80
2018-05-02T11:14:39.512Z,2.27
2018-05-02T11:17:06.969Z,1.90
2018-05-02T11:19:34.429Z,1.90
2018-05-02T11:22:02.010Z,1.80
2018-05-02T11:24:29.333Z,1.60
2018-05-02T11:26:56.759Z,1.80
2018-05-02T11:29:24.978Z,2.00
2018-05-02T11:31:52.419Z,2.10
2018-05-02T11:34:19.915Z,1.73
2018-05-02T11:36:47.357Z,2.07
2018-05-02T11:39:14.791Z,2.00
2018-05-02T11:41:42.260Z,1.70
2018-05-02T11:44:09.815Z,1.80
2018-05-02T11:46:37.243Z,1.87
2018-05-02T11:49:04.680Z,2.10
2018-05-02T11:51:32.921Z,2.30
2018-05-02T11:54:00.354Z,2.03
2018-05-02T11:56:27.783Z,1.80
2018-05-02T11:58:56.109Z,2.20
2018-05-02T12:01:23.578Z,1.90
2018-05-02T12:03:51.091Z,1.80
2018-05-02T12:06:18.531Z,2.07
2018-05-02T12:08:46.719Z,2.30
2018-05-02T12:11:14.153Z,2.23
2018-05-02T12:13:42.407Z,2.20
2018-05-02T12:16:09.855Z,2.37
2018-05-02T12:18:37.290Z,2.03
2018-05-02T12:21:04.726Z,1.80
2018-05-02T12:23:32.171Z,2.40
2018-05-02T12:26:00.378Z,2.60
2018-05-02T12:28:27.825Z,2.20
2018-05-02T12:30:55.259Z,2.30
2018-05-02T12:33:22.696Z,2.30
2018-05-02T12:35:50.929Z,2.80
2018-05-02T12:38:18.349Z,2.30
2018-05-02T12:40:45.813Z,2.37
2018-05-02T12:43:13.304Z,2.27
2018-05-02T12:45:40.755Z,2.20
2018-05-02T12:48:08.218Z,2.40
2018-05-02T12:50:35.666Z,2.47
2018-05-02T12:53:03.113Z,2.30
2018-05-02T12:55:30.535Z,2.30
2018-05-02T12:57:58.759Z,2.30
2018-05-02T13:00:26.221Z,2.50
2018-05-02T13:02:53.682Z,2.50
2018-05-02T13:05:21.120Z,3.20
2018-05-02T13:07:48.555Z,2.20
2018-05-02T13:10:15.990Z,2.43
2018-05-02T13:12:43.544Z,2.40
2018-05-02T13:15:10.966Z,2.30
2018-05-02T13:17:38.423Z,2.20
2018-05-02T13:20:05.875Z,2.72
2018-05-02T13:22:33.305Z,2.30
2018-05-02T13:25:00.790Z,2.60
2018-05-02T13:27:28.228Z,2.10
2018-05-02T13:29:55.663Z,2.40
2018-05-02T13:32:23.155Z,2.47
2018-05-02T13:34:50.631Z,2.10
2018-05-02T13:37:18.072Z,2.50
2018-05-02T13:39:45.541Z,2.00
2018-05-02T13:42:13.029Z,2.10
2018-05-02T13:44:40.452Z,2.42
2018-05-02T13:47:07.879Z,2.17
2018-05-02T13:49:35.332Z,2.40
2018-05-02T13:52:02.835Z,2.20
2018-05-02T13:54:30.380Z,2.95
2018-05-02T13:56:57.856Z,2.60
2018-05-02T13:59:25.275Z,2.67
2018-05-02T14:01:52.709Z,2.30
2018-05-02T14:04:20.931Z,2.10
2018-05-02T14:06:48.379Z,2.12
2018-05-02T14:09:15.818Z,1.92
2018-05-02T14:11:43.255Z,1.90
2018-05-02T14:14:11.458Z,2.28
2018-05-02T14:16:38.907Z,2.17
2018-05-02T14:19:06.401Z,2.40
2018-05-02T14:21:33.852Z,1.92
2018-05-02T14:24:01.290Z,2.22
2018-05-02T14:26:28.760Z,2.00
2018-05-02T14:28:56.237Z,2.45
2018-05-02T14:31:23.716Z,2.47
2018-05-02T14:33:51.179Z,1.83
2018-05-02T14:36:18.627Z,2.17
2018-05-02T14:38:46.099Z,1.70
2018-05-02T14:41:13.555Z,1.73
2018-05-02T14:43:40.979Z,2.00
2018-05-02T14:46:08.419Z,2.17
2018-05-02T14:48:36.649Z,2.00
2018-05-02T14:51:04.085Z,1.87
2018-05-02T14:53:31.560Z,2.22
2018-05-02T14:55:59.002Z,1.90
2018-05-02T14:58:26.446Z,1.95
2018-05-02T15:00:53.927Z,2.35
2018-05-02T15:03:21.391Z,1.77
2018-05-02T15:05:48.814Z,1.77
2018-05-02T15:08:16.393Z,1.80
2018-05-02T15:10:43.768Z,2.30
2018-05-02T15:13:11.237Z,2.00
2018-05-02T15:15:38.724Z,2.00
2018-05-02T15:18:07.005Z,1.75
2018-05-02T15:20:35.688Z,2.03
2018-05-02T15:23:03.471Z,1.90
2018-05-02T15:25:31.724Z,1.87
2018-05-02T15:27:59.953Z,1.85
2018-05-02T15:30:27.377Z,2.12
2018-05-02T15:32:54.822Z,2.00
2018-05-02T15:35:23.011Z,2.00
2018-05-02T15:37:50.496Z,1.58
2018-05-02T15:40:18.175Z,1.77
2018-05-02T15:42:45.832Z,1.70
2018-05-02T15:45:13.380Z,1.95
2018-05-02T15:47:40.835Z,2.15
2018-05-02T15:50:08.273Z,2.00
2018-05-02T15:52:36.334Z,1.75
2018-05-02T15:55:04.603Z,2.03
2018-05-02T15:57:32.836Z,1.83
2018-05-02T16:00:00.271Z,2.17
2018-05-02T16:02:28.049Z,2.17
2018-05-02T16:04:55.507Z,1.90
2018-05-02T16:07:23.323Z,2.78
2018-05-02T16:09:51.261Z,2.53
2018-05-02T16:12:18.677Z,2.30
2018-05-02T16:14:46.143Z,2.15
2018-05-02T16:17:13.601Z,1.95
2018-05-02T16:19:41.075Z,2.67
2018-05-02T16:22:09.116Z,1.80
2018-05-02T16:24:38.248Z,2.00
2018-05-02T16:27:05.891Z,2.60
2018-05-02T16:29:33.487Z,1.92
2018-05-02T16:32:02.612Z,1.87
2018-05-02T16:34:30.867Z,1.92
2018-05-02T16:36:59.068Z,1.95
2018-05-02T16:39:26.502Z,2.20
2018-05-02T16:41:54.731Z,2.30
2018-05-02T16:44:22.167Z,2.30
2018-05-02T16:46:49.636Z,2.28
2018-05-02T16:49:17.095Z,2.35
2018-05-02T16:51:45.567Z,2.35
2018-05-02T16:54:13.019Z,3.10
2018-05-02T16:56:40.486Z,3.72
2018-05-02T16:59:07.935Z,4.60
2018-05-02T17:01:35.445Z,2.70
2018-05-02T17:04:02.890Z,2.67
2018-05-02T17:06:30.414Z,2.42
2018-05-02T17:08:57.879Z,3.00
2018-05-02T17:11:25.326Z,2.60
2018-05-02T17:13:52.823Z,2.58
2018-05-02T17:16:20.259Z,2.65
2018-05-02T17:18:47.807Z,2.70
2018-05-02T17:21:15.236Z,2.45
2018-05-02T17:23:42.747Z,2.22
2018-05-02T17:26:10.179Z,2.20
2018-05-02T17:28:37.632Z,2.20
2018-05-02T17:31:05.083Z,2.80
2018-05-02T17:33:32.518Z,2.10
2018-05-02T17:35:59.999Z,2.20
2018-05-02T17:38:27.465Z,2.40
2018-05-02T17:40:54.925Z,2.10
2018-05-02T17:43:22.483Z,2.53
2018-05-02T17:45:50.044Z,2.33
2018-05-02T17:48:17.495Z,2.10
2018-05-02T17:50:44.926Z,2.67
2018-05-02T17:53:12.381Z,2.33
2018-05-02T17:55:39.907Z,2.10
2018-05-02T17:58:07.338Z,2.20
2018-05-02T18:00:34.801Z,2.00
2018-05-02T18:03:02.353Z,1.97
2018-05-02T18:05:29.886Z,2.10
2018-05-02T18:07:57.355Z,1.73
2018-05-02T18:10:24.826Z,2.00
2018-05-02T18:12:52.217Z,1.40
2018-05-02T18:15:19.656Z,1.80
2018-05-02T18:17:48.605Z,1.20
2018-05-02T18:20:16.052Z,1.90
2018-05-02T18:22:43.552Z,1.57
2018-05-02T18:25:10.943Z,1.60
2018-05-02T18:27:39.138Z,1.93
2018-05-02T18:30:06.566Z,1.73
2018-05-02T18:32:34.771Z,1.70
2018-05-02T18:35:02.264Z,1.30
2018-05-02T18:37:29.733Z,1.60
2018-05-02T18:39:57.153Z,1.40
2018-05-02T18:42:24.634Z,1.40
2018-05-02T18:44:52.083Z,1.40
2018-05-02T18:47:19.526Z,1.00
2018-05-02T18:49:47.031Z,1.50
2018-05-02T18:52:14.463Z,1.20
2018-05-02T18:54:41.911Z,1.67
2018-05-02T18:57:09.375Z,1.43
2018-05-02T18:59:36.915Z,1.60
2018-05-02T19:02:04.387Z,1.50
2018-05-02T19:04:31.838Z,1.50
2018-05-02T19:06:59.324Z,1.70
2018-05-02T19:09:26.760Z,1.73
2018-05-02T19:11:54.190Z,1.30
2018-05-02T19:14:21.641Z,1.80
2018-05-02T19:16:49.059Z,1.80
2018-05-02T19:19:22.271Z,2.00
2018-05-02T19:21:50.511Z,2.20
2018-05-02T19:24:17.955Z,2.23
2018-05-02T19:26:45.500Z,2.37
2018-05-02T19:29:12.961Z,2.37
2018-05-02T19:31:46.001Z,2.40
2018-05-02T19:34:13.426Z,2.23
2018-05-02T19:36:40.868Z,2.03
2018-05-02T19:39:08.295Z,2.70
2018-05-02T19:41:41.489Z,2.17
2018-05-02T19:44:08.919Z,2.40
2018-05-02T19:46:37.144Z,2.33
2018-05-02T19:49:04.644Z,2.40
2018-05-02T19:51:37.774Z,2.60
2018-05-02T19:54:05.957Z,2.70
2018-05-02T19:56:33.387Z,3.23
2018-05-02T19:59:01.590Z,2.90
2018-05-02T20:01:34.749Z,3.07
2018-05-02T20:04:02.970Z,2.70
2018-05-02T20:06:30.454Z,3.03
2018-05-02T20:09:03.694Z,3.60
2018-05-02T20:11:36.900Z,2.80
2018-05-02T20:14:04.788Z,2.83
2018-05-02T20:16:32.221Z,2.97
2018-05-02T20:18:59.644Z,2.67
2018-05-02T20:21:27.859Z,3.20
2018-05-02T20:23:55.315Z,2.93
2018-05-02T20:26:22.719Z,2.53
2018-05-02T20:28:50.160Z,3.37
2018-05-02T20:31:17.592Z,3.50
2018-05-02T20:33:45.036Z,4.60
2018-05-02T20:36:12.521Z,4.83
2018-05-02T20:38:39.981Z,5.27
2018-05-02T20:41:07.427Z,5.53
2018-05-02T20:43:34.851Z,6.27
2018-05-02T20:46:02.342Z,7.23
2018-05-02T20:48:29.819Z,6.50
2018-05-02T20:50:57.256Z,7.33
2018-05-02T20:53:24.730Z,7.30
2018-05-02T20:55:52.272Z,6.77
2018-05-02T20:58:19.731Z,7.63
2018-05-02T21:00:47.171Z,7.50
2018-05-02T21:03:14.647Z,7.53
2018-05-02T21:05:42.100Z,8.43
2018-05-02T21:08:09.553Z,7.47
2018-05-02T21:10:36.989Z,7.10
2018-05-02T21:13:04.495Z,7.70
2018-05-02T21:15:31.936Z,6.77
2018-05-02T21:17:59.391Z,7.47
2018-05-02T21:20:26.883Z,7.70
2018-05-02T21:22:55.127Z,7.57
2018-05-02T21:25:22.568Z,8.07
2018-05-02T21:27:50.063Z,7.70
2018-05-02T21:30:17.506Z,8.23
2018-05-02T21:32:44.979Z,8.33
2018-05-02T21:35:12.427Z,8.20
2018-05-02T21:37:39.871Z,8.50
2018-05-02T21:40:07.328Z,7.30
2018-05-02T21:42:34.886Z,7.97
2018-05-02T21:45:02.427Z,8.83
2018-05-02T21:47:29.839Z,7.53
2018-05-02T21:49:58.095Z,8.40
2018-05-02T21:52:25.550Z,8.47
2018-05-02T21:54:53.051Z,7.90
2018-05-02T21:57:20.543Z,8.17
2018-05-02T21:59:47.984Z,7.50
2018-05-02T22:02:15.428Z,8.17
2018-05-02T22:04:42.938Z,8.20
2018-05-02T22:07:10.429Z,9.20
2018-05-02T22:09:38.640Z,8.67
2018-05-02T22:12:06.122Z,9.13
2018-05-02T22:14:33.559Z,8.80
2018-05-02T22:17:00.995Z,10.07
2018-05-02T22:19:28.510Z,10.70
2018-05-02T22:21:55.939Z,11.23
2018-05-02T22:24:23.379Z,11.27
2018-05-02T22:26:50.839Z,10.80
2018-05-02T22:29:18.282Z,11.07
2018-05-02T22:31:45.798Z,11.97
2018-05-02T22:34:13.248Z,12.07
2018-05-02T22:36:40.787Z,11.77
2018-05-02T22:39:08.242Z,11.53
2018-05-02T22:41:35.710Z,11.80
2018-05-02T22:44:03.192Z,11.43
2018-05-02T22:46:30.713Z,12.57
2018-05-02T22:48:58.165Z,12.40
2018-05-02T22:51:25.638Z,11.73
2018-05-02T22:53:53.105Z,11.37
2018-05-02T22:56:20.639Z,10.73
2018-05-02T22:58:48.111Z,9.20
2018-05-02T23:01:15.548Z,8.80
2018-05-02T23:03:42.976Z,6.80
2018-05-02T23:06:11.173Z,6.60
2018-05-02T23:08:38.632Z,6.23
2018-05-02T23:11:06.106Z,6.60
2018-05-02T23:13:33.545Z,5.17
2018-05-02T23:16:00.985Z,5.82
2018-05-02T23:18:28.428Z,4.50
2018-05-02T23:20:56.647Z,5.47
2018-05-02T23:23:24.115Z,5.10
2018-05-02T23:25:51.564Z,4.30
2018-05-02T23:28:18.989Z,5.30
2018-05-02T23:30:46.479Z,4.73
2018-05-02T23:33:13.931Z,4.53
2018-05-02T23:35:41.482Z,4.47
2018-05-02T23:38:08.890Z,4.40
2018-05-02T23:40:36.411Z,4.77
2018-05-02T23:43:03.927Z,4.30
2018-05-02T23:45:31.379Z,4.40
2018-05-02T23:47:59.602Z,4.53
2018-05-02T23:50:27.043Z,4.50
2018-05-02T23:52:54.518Z,4.40
2018-05-02T23:55:21.983Z,4.27
2018-05-02T23:57:49.425Z,4.43
